Time;durP1;ratioP1;P1;durP2;ratioP2;P2;SDS_P1;SDS_P2;PMS_P1;PMS_P2;Temp;Humidity;BMP_temperature;BMP_pressure;BME280_temperature;BME280_humidity;BME280_pressure;Samples;Min_cycle;Max_cycle;Signal;HPM_P1;HPM_P2
2022/10/05 00:02:18;;;;;;;3.10;0.65;;;;;;;15.41;100.00;100508.78;5032885;28;20017;-48
2022/10/05 00:04:44;;;;;;;4.10;0.10;;;;;;;15.39;100.00;100503.69;5035802;28;20032;-49
2022/10/05 00:07:18;;;;;;;1.08;0.00;;;;;;;15.35;100.00;100489.13;5035603;28;20072;-54
2022/10/05 00:09:46;;;;;;;3.30;0.70;;;;;;;15.31;100.00;100495.97;5032147;28;20016;-49
2022/10/05 00:12:18;;;;;;;1.33;0.10;;;;;;;15.33;100.00;100495.72;5035293;28;20452;-50
2022/10/05 00:14:46;;;;;;;2.83;0.28;;;;;;;15.31;100.00;100495.97;5031066;28;20036;-54
2022/10/05 00:17:19;;;;;;;9.63;0.30;;;;;;;15.36;100.00;100487.25;5040555;28;20033;-51
2022/10/05 00:19:50;;;;;;;1.63;0.17;;;;;;;15.38;100.00;100483.31;5041155;28;20370;-48
2022/10/05 00:22:18;;;;;;;0.98;0.55;;;;;;;15.39;100.00;100466.28;5035420;28;20037;-53
2022/10/05 00:24:45;;;;;;;2.97;0.73;;;;;;;15.43;100.00;100488.81;5042092;28;20367;-52
2022/10/05 00:27:40;;;;;;;1.85;0.43;;;;;;;15.45;100.00;100480.59;5035923;28;20487;-59
2022/10/05 00:30:18;;;;;;;0.47;0.30;;;;;;;15.46;100.00;100484.88;5039000;28;20110;-49
2022/10/05 00:32:44;;;;;;;2.95;0.30;;;;;;;15.47;100.00;100487.34;5052895;28;20023;-55
2022/10/05 00:35:11;;;;;;;0.90;0.30;;;;;;;15.46;100.00;100476.88;5034813;28;20621;-50
2022/10/05 00:37:36;;;;;;;2.50;0.60;;;;;;;15.45;100.00;100477.94;5033547;28;20477;-52
2022/10/05 00:40:14;;;;;;;3.53;0.30;;;;;;;15.51;100.00;100476.22;5044191;28;20065;-50
2022/10/05 00:42:49;;;;;;;2.75;0.68;;;;;;;15.51;100.00;100489.56;5040139;28;20025;-54
2022/10/05 00:45:20;;;;;;;2.88;0.22;;;;;;;15.51;100.00;100473.53;5034050;28;20398;-48
2022/10/05 00:48:12;;;;;;;1.85;0.10;;;;;;;15.49;100.00;100474.59;5038337;28;20041;-47
2022/10/05 00:50:55;;;;;;;0.20;0.10;;;;;;;15.50;100.00;100475.41;5042705;28;20048;-47
2022/10/05 00:53:23;;;;;;;0.90;0.00;;;;;;;15.49;100.00;100481.78;5042801;28;20416;-48
2022/10/05 00:56:12;;;;;;;4.80;0.47;;;;;;;15.53;100.00;100479.47;5035775;28;20036;-53
2022/10/05 00:58:46;;;;;;;1.73;0.10;;;;;;;15.50;100.00;100464.72;5038385;28;20034;-48
2022/10/05 01:01:27;;;;;;;8.82;0.90;;;;;;;15.55;100.00;100475.53;5034996;28;20036;-50
2022/10/05 01:04:19;;;;;;;2.60;0.10;;;;;;;15.55;100.00;100472.06;5038066;28;20104;-48
2022/10/05 01:07:14;;;;;;;2.22;0.20;;;;;;;15.53;100.00;100464.25;5040354;28;20034;-50
2022/10/05 01:10:00;;;;;;;3.70;0.20;;;;;;;15.52;100.00;100464.50;5034778;28;20064;-49
2022/10/05 01:12:44;;;;;;;0.57;0.00;;;;;;;15.50;100.00;100470.06;5040249;28;20029;-51
2022/10/05 01:15:21;;;;;;;3.05;0.20;;;;;;;15.49;100.00;100468.44;5028261;28;20143;-50
2022/10/05 01:18:07;;;;;;;1.33;0.10;;;;;;;15.45;100.00;100452.00;5048362;28;20527;-53
2022/10/05 01:20:53;;;;;;;2.05;0.00;;;;;;;15.47;100.00;100460.63;5046254;28;20112;-50
2022/10/05 01:23:56;;;;;;;3.20;0.10;;;;;;;15.46;100.00;100471.53;5043456;28;20048;-54
2022/10/05 01:26:25;;;;;;;0.73;0.22;;;;;;;15.45;100.00;100448.53;5038793;28;20187;-52
2022/10/05 01:28:53;;;;;;;3.17;0.20;;;;;;;15.44;100.00;100438.91;5046463;28;20463;-50
2022/10/05 01:31:30;;;;;;;0.55;0.03;;;;;;;15.42;100.00;100438.31;5030900;28;20479;-50
2022/10/05 01:34:06;;;;;;;3.55;0.10;;;;;;;15.41;100.00;100440.16;5048000;28;20041;-50
2022/10/05 01:36:46;;;;;;;3.50;0.22;;;;;;;15.44;100.00;100420.19;5038486;28;20138;-54
2022/10/05 01:39:24;;;;;;;1.63;0.10;;;;;;;15.44;100.00;100420.19;5044531;28;20033;-48
2022/10/05 01:41:59;;;;;;;1.83;0.15;;;;;;;15.43;100.00;100426.56;5040944;28;20025;-48
2022/10/05 01:44:32;;;;;;;0.52;0.00;;;;;;;15.45;100.00;100409.28;5042454;28;20033;-49
2022/10/05 01:47:13;;;;;;;4.57;0.03;;;;;;;15.44;100.00;100407.66;5037217;28;20466;-47
2022/10/05 01:49:50;;;;;;;3.72;0.32;;;;;;;15.40;100.00;100398.44;5036690;28;20037;-54
2022/10/05 01:52:19;;;;;;;0.65;0.05;;;;;;;15.40;100.00;100390.41;5029479;28;20356;-53
2022/10/05 01:55:05;;;;;;;4.03;0.00;;;;;;;15.42;100.00;100387.53;5043122;28;20450;-48
2022/10/05 01:57:50;;;;;;;1.33;0.17;;;;;;;15.41;100.00;100383.22;5042424;28;20351;-49
2022/10/05 02:00:17;;;;;;;1.95;0.10;;;;;;;15.38;100.00;100373.00;5043551;28;20112;-48
2022/10/05 02:03:04;;;;;;;6.40;0.10;;;;;;;15.39;100.00;100367.44;5043357;28;20032;-51
2022/10/05 02:05:55;;;;;;;1.92;0.00;;;;;;;15.42;100.00;100380.34;5043087;28;20024;-56
2022/10/05 02:08:32;;;;;;;0.60;0.00;;;;;;;15.44;100.00;100367.56;5037352;28;20112;-55
2022/10/05 02:11:05;;;;;;;0.45;0.00;;;;;;;15.43;100.00;100373.13;5044085;28;20082;-49
2022/10/05 02:13:37;;;;;;;2.05;0.20;;;;;;;15.39;100.00;100369.28;5048211;28;20087;-51
2022/10/05 02:16:14;;;;;;;2.20;0.35;;;;;;;15.39;100.00;100371.97;5052366;28;20025;-51
2022/10/05 02:18:57;;;;;;;2.88;0.10;;;;;;;15.39;100.00;100378.13;5046226;28;20506;-53
2022/10/05 02:21:24;;;;;;;0.50;0.00;;;;;;;15.42;100.00;100360.81;5038588;28;20034;-58
2022/10/05 02:23:53;;;;;;;2.42;0.10;;;;;;;15.40;100.00;100361.03;5033982;28;20504;-56
2022/10/05 02:26:20;;;;;;;1.50;0.20;;;;;;;15.38;100.00;100349.75;5043855;28;20042;-50
2022/10/05 02:28:56;;;;;;;0.80;0.28;;;;;;;15.39;100.00;100351.41;5034027;28;20120;-58
2022/10/05 02:31:27;;;;;;;1.70;0.08;;;;;;;15.37;100.00;100342.78;5036369;28;20229;-48
2022/10/05 02:34:19;;;;;;;3.40;0.10;;;;;;;15.39;100.00;100345.25;5040299;28;20098;-50
2022/10/05 02:36:50;;;;;;;1.25;0.20;;;;;;;15.43;100.00;100344.56;5041300;28;20287;-54
2022/10/05 02:40:03;;;;;;;0.47;0.00;;;;;;;15.44;100.00;100345.38;5035423;28;20087;-50
2022/10/05 02:42:52;;;;;;;0.47;0.00;;;;;;;15.41;100.00;100343.97;5030618;28;20054;-54
2022/10/05 02:45:29;;;;;;;1.90;0.10;;;;;;;15.39;100.00;100330.03;5043325;28;20444;-53
2022/10/05 02:48:07;;;;;;;0.85;0.00;;;;;;;15.42;100.00;100329.56;5045923;28;20028;-50
2022/10/05 02:50:47;;;;;;;1.75;0.10;;;;;;;15.40;100.00;100331.66;5041212;28;20489;-55
2022/10/05 02:53:43;;;;;;;1.90;0.00;;;;;;;15.44;100.00;100329.34;5033544;28;20029;-53
2022/10/05 02:56:25;;;;;;;1.75;0.00;;;;;;;15.43;100.00;100331.19;5045928;28;20032;-53
2022/10/05 02:59:00;;;;;;;0.82;0.20;;;;;;;15.45;100.00;100323.78;5035894;28;20071;-48
2022/10/05 03:01:39;;;;;;;0.15;0.00;;;;;;;15.45;100.00;100317.63;5043858;28;20132;-49
2022/10/05 03:04:23;;;;;;;0.80;0.05;;;;;;;15.41;100.00;100313.75;5047010;28;20108;-49
2022/10/05 03:07:03;;;;;;;0.77;0.20;;;;;;;15.40;100.00;100310.28;5032355;28;20482;-50
2022/10/05 03:09:38;;;;;;;3.72;0.10;;;;;;;15.41;100.00;100316.44;5036817;28;20032;-51
2022/10/05 03:12:19;;;;;;;2.92;0.20;;;;;;;15.41;100.00;100303.91;5036398;28;20059;-47
2022/10/05 03:14:55;;;;;;;1.15;0.22;;;;;;;15.44;100.00;100310.66;5042909;28;20084;-48
2022/10/05 03:17:26;;;;;;;0.88;0.22;;;;;;;15.40;100.00;100304.13;5041359;28;20041;-50
2022/10/05 03:20:15;;;;;;;2.45;0.38;;;;;;;15.40;100.00;100307.59;5033263;28;20667;-53
2022/10/05 03:22:53;;;;;;;3.00;0.43;;;;;;;15.42;100.00;100308.19;5037225;28;20092;-52
2022/10/05 03:25:43;;;;;;;0.63;0.10;;;;;;;15.42;100.00;100307.41;5040672;28;20427;-47
2022/10/05 03:28:16;;;;;;;0.40;0.40;;;;;;;15.41;100.00;100303.91;5036381;28;20048;-47
2022/10/05 03:30:54;;;;;;;2.20;0.20;;;;;;;15.42;100.00;100294.84;5045233;28;20036;-51
2022/10/05 03:33:33;;;;;;;3.10;1.02;;;;;;;15.45;100.00;100291.72;5041726;28;20230;-48
2022/10/05 03:36:09;;;;;;;2.28;0.20;;;;;;;15.43;100.00;100295.66;5041358;28;20063;-48
2022/10/05 03:38:57;;;;;;;2.90;0.57;;;;;;;15.43;100.00;100296.47;5047937;28;20057;-47
2022/10/05 03:41:41;;;;;;;1.17;0.70;;;;;;;15.44;100.00;100292.75;5033764;28;20116;-52
2022/10/05 03:44:49;;;;;;;0.38;0.30;;;;;;;15.44;100.00;100295.44;5039916;28;20037;-53
2022/10/05 03:47:32;;;;;;;0.25;0.20;;;;;;;15.42;100.00;100296.72;5032852;28;20036;-47
2022/10/05 03:50:04;;;;;;;1.85;0.00;;;;;;;15.39;100.00;100291.81;5035277;28;20032;-49
2022/10/05 03:53:02;;;;;;;5.15;1.00;;;;;;;15.42;100.00;100308.19;5038469;28;20409;-48
2022/10/05 03:55:33;;;;;;;3.25;0.73;;;;;;;15.42;100.00;100297.50;5034318;28;20052;-53
2022/10/05 03:58:08;;;;;;;2.78;0.20;;;;;;;15.40;100.00;100298.78;5041592;28;20056;-49
2022/10/05 04:00:36;;;;;;;2.30;0.30;;;;;;;15.39;100.00;100291.81;5037810;28;20498;-47
2022/10/05 04:03:26;;;;;;;1.10;0.52;;;;;;;15.39;100.00;100287.28;5038470;28;20021;-52
2022/10/05 04:06:00;;;;;;;7.55;0.80;;;;;;;15.39;100.00;100289.16;5035522;28;20471;-51
2022/10/05 04:08:28;;;;;;;0.95;0.30;;;;;;;15.37;100.00;100291.22;5034411;28;20051;-50
2022/10/05 04:10:57;;;;;;;2.67;0.30;;;;;;;15.38;100.00;100274.97;5036636;28;20367;-50
2022/10/05 04:13:45;;;;;;;1.58;0.10;;;;;;;15.37;100.00;100270.66;5032847;28;20036;-50
2022/10/05 04:16:21;;;;;;;7.10;0.30;;;;;;;15.35;100.00;100270.06;5037532;28;20029;-53
2022/10/05 04:18:57;;;;;;;6.28;1.17;;;;;;;15.34;100.00;100263.13;5044934;28;20555;-53
2022/10/05 04:21:28;;;;;;;3.42;1.45;;;;;;;15.34;100.00;100263.13;5043811;28;20037;-53
2022/10/05 04:24:12;;;;;;;3.70;0.43;;;;;;;15.33;100.00;100266.00;5035716;28;20248;-47
2022/10/05 04:26:46;;;;;;;11.93;0.30;;;;;;;15.33;100.00;100263.31;5037275;28;20495;-50
2022/10/05 04:29:33;;;;;;;4.32;0.35;;;;;;;15.34;100.00;100263.13;5042627;28;20416;-48
2022/10/05 04:32:07;;;;;;;3.53;0.38;;;;;;;15.32;100.00;100259.03;5035719;28;20025;-50
2022/10/05 04:35:08;;;;;;;2.83;0.32;;;;;;;15.30;100.00;100253.91;5047079;28;20033;-48
2022/10/05 04:38:05;;;;;;;3.92;0.40;;;;;;;15.32;100.00;100243.00;5035267;28;20037;-51
2022/10/05 04:40:47;;;;;;;5.30;0.30;;;;;;;15.31;100.00;100252.03;5039881;28;20025;-45
2022/10/05 04:43:15;;;;;;;1.05;0.22;;;;;;;15.28;100.00;100250.66;5044415;28;20115;-49
2022/10/05 04:46:12;;;;;;;10.40;0.20;;;;;;;15.27;100.00;100246.34;5043499;28;20099;-48
2022/10/05 04:48:49;;;;;;;3.45;0.32;;;;;;;15.25;100.00;100243.09;5046495;28;20047;-53
2022/10/05 04:51:21;;;;;;;5.28;0.50;;;;;;;15.24;100.00;100246.81;5044190;28;20029;-46
2022/10/05 04:53:55;;;;;;;0.15;0.05;;;;;;;15.23;100.00;100240.66;5039210;28;20116;-49
2022/10/05 04:56:41;;;;;;;1.95;0.35;;;;;;;15.24;100.00;100236.13;5049430;28;20065;-49
2022/10/05 04:59:22;;;;;;;3.30;0.60;;;;;;;15.22;100.00;100228.34;5039530;28;20382;-47
2022/10/05 05:01:50;;;;;;;3.50;0.55;;;;;;;15.22;100.00;100238.22;5035950;28;20032;-49
2022/10/05 05:04:21;;;;;;;2.97;0.10;;;;;;;15.21;100.00;100228.59;5040745;28;20029;-47
2022/10/05 05:06:55;;;;;;;2.03;0.15;;;;;;;15.23;100.00;100226.47;5042390;28;20040;-47
2022/10/05 05:09:41;;;;;;;1.65;0.50;;;;;;;15.22;100.00;100227.53;5039736;28;20116;-46
2022/10/05 05:12:17;;;;;;;2.38;0.10;;;;;;;15.23;100.00;100223.81;5042402;28;20040;-46
2022/10/05 05:14:45;;;;;;;4.00;0.20;;;;;;;15.23;100.00;100218.47;5044323;28;20060;-49
2022/10/05 05:17:22;;;;;;;1.40;0.10;;;;;;;15.19;100.00;100206.63;5038186;28;20584;-47
2022/10/05 05:20:15;;;;;;;0.95;0.00;;;;;;;15.18;100.00;100216.50;5046584;28;20025;-52
2022/10/05 05:22:59;;;;;;;0.50;0.20;;;;;;;15.17;100.00;100208.69;5046042;28;20036;-49
2022/10/05 05:25:46;;;;;;;0.55;0.25;;;;;;;15.16;100.00;100205.22;5042567;28;20112;-48
2022/10/05 05:28:28;;;;;;;3.85;0.20;;;;;;;15.14;100.00;100203.81;5044208;28;20041;-48
2022/10/05 05:31:14;;;;;;;3.72;0.22;;;;;;;15.13;100.00;100202.22;5042644;28;20093;-48
2022/10/05 05:34:11;;;;;;;4.57;0.93;;;;;;;15.10;100.00;100207.97;5046865;28;20626;-51
2022/10/05 05:36:59;;;;;;;0.73;0.00;;;;;;;15.09;100.00;100211.69;5042760;28;20096;-52
2022/10/05 05:39:32;;;;;;;2.50;0.77;;;;;;;15.09;100.00;100207.16;5043801;28;20053;-48
2022/10/05 05:42:10;;;;;;;0.77;0.20;;;;;;;15.10;100.00;100189.28;5050700;28;21140;-50
2022/10/05 05:44:43;;;;;;;2.30;0.10;;;;;;;15.09;100.00;100190.34;5049954;28;20037;-48
2022/10/05 05:47:33;;;;;;;1.85;0.10;;;;;;;15.08;100.00;100204.75;5024485;28;20037;-55
2022/10/05 05:51:04;;;;;;;1.30;0.20;;;;;;;15.06;100.00;100191.59;5037189;28;20517;-52
2022/10/05 05:53:43;;;;;;;1.75;0.20;;;;;;;15.01;100.00;100197.63;5007518;28;20134;-52
2022/10/05 05:56:12;;;;;;;4.72;0.30;;;;;;;15.00;100.00;100192.53;5037499;28;20501;-55
2022/10/05 05:58:48;;;;;;;2.47;0.32;;;;;;;14.98;100.00;100182.06;5037324;28;20045;-54
2022/10/05 06:01:22;;;;;;;3.22;0.65;;;;;;;14.99;100.00;100185.53;5036047;28;20079;-51
2022/10/05 06:04:15;;;;;;;6.32;0.57;;;;;;;14.97;100.00;100180.44;5040662;28;20390;-51
2022/10/05 06:06:48;;;;;;;2.30;0.80;;;;;;;14.98;100.00;100192.75;5034938;28;20055;-53
2022/10/05 06:09:24;;;;;;;4.35;0.30;;;;;;;14.98;100.00;100203.41;5033557;28;20025;-52
2022/10/05 06:11:59;;;;;;;3.72;0.13;;;;;;;14.98;100.00;100197.28;5034826;28;21181;-51
2022/10/05 06:14:34;;;;;;;3.22;0.10;;;;;;;15.00;100.00;100197.88;5033236;28;20076;-51
2022/10/05 06:17:12;;;;;;;2.72;0.30;;;;;;;14.98;100.00;100198.09;5037865;28;20063;-53
2022/10/05 06:19:40;;;;;;;5.50;0.57;;;;;;;14.96;100.00;100192.16;5035242;28;20394;-51
2022/10/05 06:22:21;;;;;;;5.25;1.15;;;;;;;14.98;100.00;100199.94;5040266;28;20033;-52
2022/10/05 06:25:12;;;;;;;2.78;0.30;;;;;;;14.97;100.00;100191.13;5036050;28;20044;-52
2022/10/05 06:28:02;;;;;;;4.18;0.35;;;;;;;15.01;100.00;100194.97;5037564;28;20064;-50
2022/10/05 06:30:43;;;;;;;2.30;0.10;;;;;;;15.00;100.00;100193.34;5042290;28;20071;-52
2022/10/05 06:33:33;;;;;;;6.85;0.77;;;;;;;14.99;100.00;100177.53;5030640;28;21285;-55
2022/10/05 06:36:17;;;;;;;2.15;0.38;;;;;;;15.00;100.00;100187.19;5038452;28;20044;-53
2022/10/05 06:39:13;;;;;;;3.25;0.52;;;;;;;14.95;100.00;100179.84;5023643;28;20581;-49
2022/10/05 06:42:09;;;;;;;5.68;0.45;;;;;;;14.94;100.00;100196.09;5039060;28;20037;-55
2022/10/05 06:45:12;;;;;;;3.28;0.20;;;;;;;14.95;100.00;100182.53;5035462;28;20033;-50
2022/10/05 06:48:01;;;;;;;1.60;0.47;;;;;;;14.93;100.00;100191.81;5041597;28;20033;-50
2022/10/05 06:50:32;;;;;;;5.03;0.30;;;;;;;14.88;100.00;100189.81;5041486;28;20052;-55
2022/10/05 06:53:00;;;;;;;2.53;0.35;;;;;;;14.86;100.00;100186.53;5036500;28;20025;-51
2022/10/05 06:55:48;;;;;;;3.90;0.30;;;;;;;14.81;100.00;100181.06;5030043;28;20022;-50
2022/10/05 06:58:44;;;;;;;2.42;0.05;;;;;;;14.80;100.00;100188.25;5031815;28;20097;-50
2022/10/05 07:01:21;;;;;;;0.70;0.45;;;;;;;14.80;100.00;100176.78;5037773;28;20056;-50
2022/10/05 07:03:55;;;;;;;3.28;0.70;;;;;;;14.80;100.00;100190.13;5031573;28;20035;-50
2022/10/05 07:06:36;;;;;;;2.65;0.50;;;;;;;14.82;100.00;100180.84;5036112;28;20032;-50
2022/10/05 07:09:14;;;;;;;2.67;0.45;;;;;;;14.85;100.00;100178.78;5034158;28;20037;-51
2022/10/05 07:11:51;;;;;;;0.90;0.20;;;;;;;14.89;100.00;100164.72;5037420;28;20044;-49
2022/10/05 07:14:28;;;;;;;5.70;0.70;;;;;;;14.93;100.00;100176.59;5036741;28;20116;-52
2022/10/05 07:17:41;;;;;;;1.52;0.90;;;;;;;14.98;100.00;100163.38;5032617;28;20063;-47
2022/10/05 07:20:12;;;;;;;2.63;0.30;;;;;;;15.03;100.00;100149.34;5030541;28;20043;-48
2022/10/05 07:22:57;;;;;;;3.38;0.50;;;;;;;15.08;100.00;100154.00;5035223;28;20032;-52
2022/10/05 07:25:39;;;;;;;5.78;1.45;;;;;;;15.11;100.00;100145.53;5031937;28;20026;-52
2022/10/05 07:28:30;;;;;;;3.03;0.60;;;;;;;15.16;100.00;100148.34;5033217;28;20031;-49
2022/10/05 07:31:13;;;;;;;4.43;0.25;;;;;;;15.17;100.00;100141.94;5028800;28;20086;-48
2022/10/05 07:34:19;;;;;;;2.38;0.30;;;;;;;15.21;100.00;100140.44;5032621;28;20048;-48
2022/10/05 07:40:19;;;;;;;4.72;0.30;;;;;;;15.27;100.00;100129.66;5033889;28;20036;-50
2022/10/05 07:43:06;;;;;;;4.65;0.30;;;;;;;15.30;100.00;100138.25;5024132;28;20041;-53
2022/10/05 07:46:01;;;;;;;3.92;1.05;;;;;;;15.32;100.00;100130.81;5039091;28;20563;-47
2022/10/05 07:48:49;;;;;;;6.85;0.38;;;;;;;15.33;100.00;100116.41;5035288;28;20127;-49
2022/10/05 07:51:28;;;;;;;5.82;0.45;;;;;;;15.38;100.00;100120.00;5034081;28;20045;-48
2022/10/05 07:54:05;;;;;;;8.38;1.35;;;;;;;15.41;100.00;100118.75;5042151;28;20032;-50
2022/10/05 07:57:01;;;;;;;6.93;1.80;;;;;;;15.39;100.00;100119.00;5043347;28;20501;-52
2022/10/05 07:59:31;;;;;;;7.35;0.43;;;;;;;15.40;100.00;100114.47;5038676;28;20064;-51
2022/10/05 08:02:26;;;;;;;6.32;0.60;;;;;;;15.44;100.00;100113.75;5043959;28;20055;-55
2022/10/05 08:05:02;;;;;;;8.50;1.20;;;;;;;15.45;100.00;100110.03;5039694;28;20076;-48
2022/10/05 08:07:31;;;;;;;4.55;1.00;;;;;;;15.51;100.00;100115.50;5041752;28;20037;-54
2022/10/05 08:10:12;;;;;;;1.65;0.30;;;;;;;15.58;100.00;100110.84;5043172;28;20036;-54
2022/10/05 08:12:53;;;;;;;3.10;0.50;;;;;;;15.66;100.00;100100.63;5035861;28;20386;-53
2022/10/05 08:15:26;;;;;;;6.63;0.20;;;;;;;15.73;100.00;100102.41;5042516;28;20033;-52
2022/10/05 08:18:00;;;;;;;5.80;0.32;;;;;;;15.75;100.00;100103.81;5039021;28;20039;-53
2022/10/05 08:20:37;;;;;;;1.58;0.05;;;;;;;15.76;100.00;100101.94;5040218;28;20458;-50
2022/10/05 08:23:24;;;;;;;3.67;1.17;;;;;;;15.82;100.00;100096.44;5039802;28;20025;-48
2022/10/05 08:26:11;;;;;;;4.30;0.70;;;;;;;15.86;100.00;100097.63;5043024;28;20124;-49
2022/10/05 08:28:42;;;;;;;2.08;0.40;;;;;;;15.88;100.00;100098.19;5042821;28;20426;-51
2022/10/05 08:31:20;;;;;;;7.50;0.50;;;;;;;15.95;100.00;100095.38;5043660;28;20041;-47
2022/10/05 08:34:19;;;;;;;4.78;1.08;;;;;;;16.02;100.00;100095.25;5032506;28;20605;-48
2022/10/05 08:36:56;;;;;;;1.42;0.43;;;;;;;16.06;100.00;100075.03;5041222;28;20397;-54
2022/10/05 08:39:27;;;;;;;4.22;1.10;;;;;;;16.07;100.00;100074.78;5038460;28;20358;-48
2022/10/05 08:42:11;;;;;;;4.28;0.55;;;;;;;16.11;100.00;100080.47;5039747;28;20018;-51
2022/10/05 08:44:52;;;;;;;6.00;0.65;;;;;;;16.13;100.00;100076.53;5036787;28;20473;-47
2022/10/05 08:47:41;;;;;;;4.13;0.85;;;;;;;16.19;100.00;100077.44;5038976;28;20034;-48
2022/10/05 08:50:14;;;;;;;6.43;0.70;;;;;;;16.27;100.00;100063.66;5038917;28;20079;-48
2022/10/05 08:53:18;;;;;;;13.75;0.47;;;;;;;16.27;100.00;100066.34;5036556;28;20165;-50
2022/10/05 08:56:21;;;;;;;4.35;0.75;;;;;;;16.34;100.00;100058.16;5031610;28;20131;-52
2022/10/05 08:59:05;;;;;;;10.00;0.77;;;;;;;16.48;100.00;100054.16;5039817;28;20041;-48
2022/10/05 09:01:50;;;;;;;0.82;0.25;;;;;;;16.57;100.00;100059.91;5040921;28;20029;-54
2022/10/05 09:04:41;;;;;;;7.05;0.40;;;;;;;16.71;100.00;100052.41;5041464;28;20045;-51
2022/10/05 09:07:44;;;;;;;4.13;0.55;;;;;;;16.83;100.00;100038.97;5035885;28;20060;-50
2022/10/05 09:10:41;;;;;;;2.38;0.43;;;;;;;16.90;100.00;100051.16;5029550;28;20037;-57
2022/10/05 09:13:41;;;;;;;3.63;0.22;;;;;;;16.95;100.00;100020.97;5042289;28;20026;-50
2022/10/05 09:16:25;;;;;;;4.20;1.20;;;;;;;16.95;100.00;100027.13;5035299;28;20037;-50
2022/10/05 09:19:00;;;;;;;5.15;0.73;;;;;;;17.11;100.00;100028.16;5040139;28;20033;-53
2022/10/05 09:21:52;;;;;;;5.47;0.80;;;;;;;17.23;100.00;100036.13;5038258;28;20145;-46
2022/10/05 09:24:27;;;;;;;4.85;1.38;;;;;;;17.27;100.00;100031.91;5038119;28;20076;-46
2022/10/05 09:27:22;;;;;;;6.25;1.58;;;;;;;17.35;100.00;100033.38;5035516;28;20044;-47
2022/10/05 09:30:03;;;;;;;4.82;0.82;;;;;;;17.26;100.00;100032.16;5030245;28;20540;-47
2022/10/05 09:32:53;;;;;;;7.55;1.15;;;;;;;17.25;100.00;100025.19;5037723;28;20068;-52
2022/10/05 09:36:17;;;;;;;6.70;1.35;;;;;;;17.58;100.00;100030.47;5042618;28;20124;-49
2022/10/05 09:38:49;;;;;;;7.80;1.08;;;;;;;17.80;100.00;100027.00;5030463;28;20033;-54
2022/10/05 09:41:35;;;;;;;3.50;0.20;;;;;;;17.80;100.00;100018.97;5035046;28;20359;-52
2022/10/05 09:44:28;;;;;;;5.00;0.70;;;;;;;17.81;100.00;100007.16;5034438;28;20100;-51
2022/10/05 09:47:31;;;;;;;12.25;1.52;;;;;;;17.79;100.00;100004.75;5040578;28;20508;-51
2022/10/05 09:50:07;;;;;;;3.47;0.38;;;;;;;17.86;100.00;100021.47;5037005;28;20119;-51
2022/10/05 09:52:42;;;;;;;4.60;0.88;;;;;;;17.91;100.00;100011.84;5047035;28;20044;-49
2022/10/05 09:55:10;;;;;;;5.82;0.28;;;;;;;17.93;100.00;100009.72;5039734;28;20490;-54
2022/10/05 09:58:19;;;;;;;6.47;0.60;;;;;;;17.90;100.00;100000.31;5041497;28;20043;-48
2022/10/05 10:00:56;;;;;;;2.70;0.43;;;;;;;17.81;100.00;100004.47;5039099;28;20394;-51
2022/10/05 10:04:08;;;;;;;5.60;0.77;;;;;;;17.78;100.00;99997.72;5039394;28;20029;-54
2022/10/05 10:07:19;;;;;;;5.32;0.50;;;;;;;17.68;100.00;100013.69;5030135;28;20097;-54
2022/10/05 10:09:57;;;;;;;9.23;0.50;;;;;;;17.54;100.00;100012.44;5036949;28;20020;-59
2022/10/05 10:12:43;;;;;;;3.90;0.50;;;;;;;17.52;100.00;99996.59;5035738;28;20339;-51
2022/10/05 10:15:09;;;;;;;6.97;1.35;;;;;;;17.46;100.00;100013.69;5037918;28;20029;-60
2022/10/05 10:18:03;;;;;;;12.32;1.23;;;;;;;17.48;100.00;100006.22;5037525;28;20498;-53
2022/10/05 10:20:47;;;;;;;4.53;0.93;;;;;;;17.48;100.00;100008.88;5037338;28;20127;-48
2022/10/05 10:23:18;;;;;;;2.38;0.73;;;;;;;17.44;100.00;100002.38;5033819;28;20033;-50
2022/10/05 10:26:10;;;;;;;1.45;0.70;;;;;;;17.45;100.00;99996.00;5034046;28;20053;-57
2022/10/05 10:28:57;;;;;;;5.15;0.60;;;;;;;17.47;100.00;99998.41;5042571;28;20112;-49
2022/10/05 10:31:34;;;;;;;2.83;0.47;;;;;;;17.46;100.00;99991.44;5047718;28;20085;-49
2022/10/05 10:34:05;;;;;;;3.63;0.32;;;;;;;17.51;100.00;99994.97;5036816;28;20072;-47
2022/10/05 10:37:05;;;;;;;4.63;0.65;;;;;;;17.55;100.00;99996.09;5035487;28;20122;-50
2022/10/05 10:39:47;;;;;;;6.65;1.70;;;;;;;17.56;100.00;99986.19;5041819;28;20076;-51
2022/10/05 10:42:27;;;;;;;12.40;1.27;;;;;;;17.52;100.00;99993.09;5043718;28;20037;-50
2022/10/05 10:45:04;;;;;;;6.60;0.57;;;;;;;17.47;100.00;99993.84;5041456;28;20033;-49
2022/10/05 10:47:44;;;;;;;6.95;0.68;;;;;;;17.46;100.00;100008.31;5038416;28;20477;-48
2022/10/05 10:50:36;;;;;;;6.13;1.13;;;;;;;17.47;100.00;99995.72;5043068;28;20136;-54
2022/10/05 10:53:10;;;;;;;;;;;;;;;17.46;100.00;100005.63;5042688;28;20044;-50
2022/10/05 10:56:04;;;;;;;4.80;1.65;;;;;;;17.40;100.00;100012.00;5039539;28;19916;-51
2022/10/05 10:59:16;;;;;;;4.95;0.40;;;;;;;17.34;100.00;100008.41;5037853;28;20040;-50
2022/10/05 11:01:44;;;;;;;;;;;;;;;17.39;100.00;100015.72;5041719;28;20124;-50
2022/10/05 11:04:34;;;;;;;6.07;0.32;;;;;;;17.37;100.00;100028.53;5031275;28;19967;-51
2022/10/05 11:07:36;;;;;;;11.18;1.33;;;;;;;17.34;100.00;100011.09;5038811;28;20394;-51
2022/10/05 11:10:02;;;;;;;5.65;2.22;;;;;;;17.16;100.00;100022.88;5035888;28;20044;-53
2022/10/05 11:12:51;;;;;;;4.18;0.70;;;;;;;17.12;100.00;100029.81;5031977;28;20033;-50
2022/10/05 11:15:25;;;;;;;3.53;0.50;;;;;;;17.00;100.00;100035.25;5035630;28;20025;-47
2022/10/05 11:18:14;;;;;;;3.28;0.43;;;;;;;16.89;100.00;100043.38;5042846;28;20029;-49
2022/10/05 11:20:54;;;;;;;5.32;1.40;;;;;;;16.73;100.00;100048.44;5034119;28;20111;-48
2022/10/05 11:23:57;;;;;;;6.70;0.30;;;;;;;16.58;100.00;100049.00;5034990;28;20110;-47
2022/10/05 11:27:07;;;;;;;6.97;0.57;;;;;;;16.43;100.00;100062.09;5045066;28;20044;-54
2022/10/05 11:30:09;;;;;;;4.95;0.88;;;;;;;16.19;100.00;100053.34;5040854;28;20051;-57
2022/10/05 11:33:12;;;;;;;17.45;3.95;;;;;;;16.01;100.00;100073.06;5032179;28;20068;-52
2022/10/05 11:35:46;;;;;;;7.03;1.88;;;;;;;15.89;100.00;100069.59;5032160;28;20044;-56
2022/10/05 11:38:35;;;;;;;5.20;0.52;;;;;;;15.88;100.00;100073.31;5037077;28;20033;-55
2022/10/05 11:41:40;;;;;;;2.05;0.60;;;;;;;15.83;100.00;100078.56;5030102;28;20033;-56
2022/10/05 11:44:30;;;;;;;3.60;0.43;;;;;;;15.74;100.00;100082.63;5038438;28;20482;-53
2022/10/05 11:47:10;;;;;;;0.95;0.20;;;;;;;15.63;100.00;100084.25;5023651;28;20114;-59
2022/10/05 11:49:58;;;;;;;2.55;0.70;;;;;;;15.58;100.00;100081.47;5040851;28;20128;-56
2022/10/05 11:52:30;;;;;;;4.10;0.50;;;;;;;15.51;100.00;100076.22;5034484;28;20685;-56
2022/10/05 11:55:22;;;;;;;2.90;0.80;;;;;;;15.44;100.00;100094.25;5038294;28;20029;-57
2022/10/05 11:57:57;;;;;;;2.40;0.30;;;;;;;15.31;100.00;100076.59;5048019;28;20102;-55
2022/10/05 12:00:35;;;;;;;4.95;0.43;;;;;;;15.26;100.00;100077.28;5039438;28;20398;-55
2022/10/05 12:03:34;;;;;;;4.28;0.32;;;;;;;15.22;100.00;100086.00;5040198;28;20147;-55
2022/10/05 12:06:30;;;;;;;4.68;1.17;;;;;;;15.20;100.00;100080.06;5037884;28;20021;-52
2022/10/05 12:09:12;;;;;;;1.85;0.20;;;;;;;15.20;100.00;100080.06;5036340;28;20036;-51
2022/10/05 12:12:09;;;;;;;1.88;0.30;;;;;;;15.19;100.00;100081.13;5035400;28;20029;-54
2022/10/05 12:14:38;;;;;;;1.80;0.40;;;;;;;15.16;100.00;100082.38;5032319;28;20518;-61
2022/10/05 12:17:21;;;;;;;2.13;0.20;;;;;;;15.19;100.00;100084.59;5031818;28;20036;-57
2022/10/05 12:20:21;;;;;;;2.53;1.05;;;;;;;15.20;100.00;100088.06;5030196;28;20049;-54
2022/10/05 12:23:10;;;;;;;1.05;0.25;;;;;;;15.22;100.00;100078.78;5035535;28;20061;-57
2022/10/05 12:25:52;;;;;;;2.95;0.10;;;;;;;15.27;100.00;100086.09;5036875;28;20048;-56
2022/10/05 12:28:26;;;;;;;0.88;0.50;;;;;;;15.30;100.00;100088.31;5038398;28;20028;-52
2022/10/05 12:31:07;;;;;;;1.83;0.35;;;;;;;15.34;100.00;100078.81;5034784;28;20403;-61